Time;durP1;ratioP1;P1;durP2;ratioP2;P2;SDS_P1;SDS_P2;PMS_P1;PMS_P2;Temp;Humidity;BMP_temperature;BMP_pressure;BME280_temperature;BME280_humidity;BME280_pressure;Samples;Min_cycle;Max_cycle;Signal;HPM_P1;HPM_P2
2023/04/12 00:01:38;;;;;;;3.03;0.95;;;14.50;51.40;;;;;;5032117;28;20047;-45
2023/04/12 00:04:08;;;;;;;1.88;0.98;;;14.50;51.80;;;;;;5026128;28;20060;-47
2023/04/12 00:06:35;;;;;;;1.77;1.02;;;14.50;51.70;;;;;;5027973;28;20485;-50
2023/04/12 00:09:03;;;;;;;3.78;1.20;;;14.50;51.80;;;;;;5029953;28;20045;-49
2023/04/12 00:11:32;;;;;;;2.83;0.80;;;14.40;52.00;;;;;;5032517;28;20245;-51
2023/04/12 00:13:59;;;;;;;3.72;1.75;;;14.40;52.30;;;;;;5032229;28;20512;-47
2023/04/12 00:16:28;;;;;;;4.43;1.00;;;14.40;52.30;;;;;;5031602;28;20405;-48
2023/04/12 00:18:56;;;;;;;2.05;0.80;;;14.40;52.60;;;;;;5035609;28;20045;-47
2023/04/12 00:21:28;;;;;;;2.60;0.95;;;14.40;52.30;;;;;;5032429;28;20049;-47
2023/04/12 00:23:55;;;;;;;3.03;1.20;;;14.30;52.60;;;;;;5031592;28;20045;-48
2023/04/12 00:26:24;;;;;;;3.20;0.90;;;14.30;52.90;;;;;;5031431;28;20037;-50
2023/04/12 00:28:51;;;;;;;3.92;1.08;;;14.30;53.00;;;;;;5030871;28;20087;-47
2023/04/12 00:31:18;;;;;;;1.67;0.98;;;14.30;53.20;;;;;;5031606;28;20564;-48
2023/04/12 00:33:47;;;;;;;2.80;0.88;;;14.30;53.40;;;;;;5011688;28;20061;-49
2023/04/12 00:36:16;;;;;;;1.65;1.02;;;14.20;53.50;;;;;;5013524;28;20506;-47
2023/04/12 00:38:50;;;;;;;6.75;1.00;;;14.20;53.40;;;;;;5030844;28;20064;-49
2023/04/12 00:41:17;;;;;;;4.38;0.93;;;14.20;54.20;;;;;;5018877;28;20042;-48
2023/04/12 00:43:43;;;;;;;3.50;1.40;;;14.10;53.70;;;;;;5026418;28;20098;-47
2023/04/12 00:46:11;;;;;;;2.70;0.90;;;14.10;54.20;;;;;;5035314;28;20037;-47
2023/04/12 00:48:38;;;;;;;3.40;1.13;;;14.10;54.10;;;;;;5022041;28;20458;-51
2023/04/12 00:51:06;;;;;;;2.63;1.00;;;14.10;54.40;;;;;;5032245;28;20052;-49
2023/04/12 00:53:33;;;;;;;4.63;1.27;;;14.10;54.50;;;;;;5012968;28;20044;-49
2023/04/12 00:56:00;;;;;;;5.57;1.48;;;14.00;54.40;;;;;;5014052;28;20053;-50
2023/04/12 00:58:27;;;;;;;4.35;1.40;;;14.00;54.60;;;;;;5029460;28;20049;-47
2023/04/12 01:00:53;;;;;;;1.83;1.00;;;14.00;54.60;;;;;;5032020;28;20060;-47
2023/04/12 01:03:22;;;;;;;1.55;0.85;;;13.90;54.80;;;;;;5029168;28;20033;-47
2023/04/12 01:06:08;;;;;;;1.65;0.90;;;13.90;55.10;;;;;;5013836;28;20145;-47
2023/04/12 01:09:00;;;;;;;2.13;1.20;;;13.90;55.20;;;;;;5031862;28;20519;-48
2023/04/12 01:11:31;;;;;;;2.35;1.00;;;13.90;55.50;;;;;;5046143;28;20567;-50
2023/04/12 01:14:02;;;;;;;1.90;1.05;;;13.90;55.20;;;;;;5020325;28;20049;-49
2023/04/12 01:16:40;;;;;;;1.88;0.73;;;13.80;54.90;;;;;;5032163;28;20049;-46
2023/04/12 01:19:30;;;;;;;6.30;1.67;;;13.80;56.00;;;;;;5030227;28;20051;-46
2023/04/12 01:22:18;;;;;;;1.45;0.65;;;13.80;55.90;;;;;;5025941;28;20049;-48
2023/04/12 01:24:45;;;;;;;3.67;0.70;;;13.80;55.60;;;;;;5029738;28;20057;-47
2023/04/12 01:27:32;;;;;;;1.13;0.70;;;13.70;55.50;;;;;;5028844;28;20046;-46
2023/04/12 01:30:05;;;;;;;1.85;0.70;;;13.70;56.70;;;;;;5029723;28;20056;-49
2023/04/12 01:32:33;;;;;;;3.00;0.90;;;13.70;55.70;;;;;;5028359;28;20519;-47
2023/04/12 01:35:06;;;;;;;2.35;0.93;;;13.70;55.80;;;;;;5030142;28;20041;-47
2023/04/12 01:37:34;;;;;;;1.85;1.08;;;13.70;55.90;;;;;;5028669;28;20084;-48
2023/04/12 01:40:05;;;;;;;1.75;0.90;;;13.70;56.00;;;;;;5030657;28;20037;-51
2023/04/12 01:42:37;;;;;;;1.23;0.75;;;13.60;56.10;;;;;;5008088;28;20049;-50
2023/04/12 01:45:04;;;;;;;2.15;1.08;;;13.70;56.40;;;;;;5012856;28;20084;-46
2023/04/12 01:47:32;;;;;;;1.40;0.80;;;13.70;56.30;;;;;;5029224;28;20045;-52
2023/04/12 01:50:13;;;;;;;3.88;1.15;;;13.70;56.30;;;;;;5011284;28;20069;-48
2023/04/12 01:53:07;;;;;;;1.40;0.95;;;13.70;56.70;;;;;;5026757;28;20092;-46
2023/04/12 01:55:38;;;;;;;2.95;0.93;;;13.70;56.70;;;;;;5029241;28;20053;-48
2023/04/12 01:58:13;;;;;;;1.83;0.80;;;13.70;56.20;;;;;;5028879;28;20056;-49
2023/04/12 02:00:43;;;;;;;2.05;0.80;;;13.60;56.20;;;;;;5017695;28;20141;-45
2023/04/12 02:03:11;;;;;;;1.65;0.98;;;13.60;56.40;;;;;;5025094;28;20042;-48
2023/04/12 02:05:38;;;;;;;2.13;0.80;;;13.60;56.30;;;;;;5029150;28;20379;-48
2023/04/12 02:08:06;;;;;;;1.52;0.73;;;13.60;56.40;;;;;;5027273;28;20064;-49
2023/04/12 02:10:38;;;;;;;1.50;0.80;;;13.50;56.40;;;;;;5030047;28;20061;-46
2023/04/12 02:13:17;;;;;;;4.35;0.90;;;13.60;56.60;;;;;;5028512;28;20061;-45
2023/04/12 02:15:46;;;;;;;2.28;1.00;;;13.50;56.40;;;;;;5024197;28;20075;-49
2023/04/12 02:18:15;;;;;;;0.93;0.50;;;13.50;56.50;;;;;;5028896;28;20049;-47
2023/04/12 02:20:45;;;;;;;1.85;0.70;;;13.50;56.60;;;;;;5011936;28;20049;-48
2023/04/12 02:23:12;;;;;;;2.00;0.60;;;13.50;56.80;;;;;;5011495;28;20044;-49
2023/04/12 02:25:40;;;;;;;1.35;0.75;;;13.50;56.90;;;;;;5011459;28;20041;-49
2023/04/12 02:28:07;;;;;;;2.72;1.00;;;13.50;56.80;;;;;;5011065;28;20091;-50
2023/04/12 02:30:34;;;;;;;0.73;0.73;;;13.50;56.70;;;;;;5014207;28;20033;-49
2023/04/12 02:33:04;;;;;;;1.05;0.70;;;13.50;56.80;;;;;;5018556;28;20635;-47
2023/04/12 02:35:35;;;;;;;2.92;0.95;;;13.40;57.20;;;;;;5012778;28;20042;-46
2023/04/12 02:38:07;;;;;;;0.88;0.60;;;13.40;57.20;;;;;;5029032;28;20037;-47
2023/04/12 02:40:40;;;;;;;1.67;0.80;;;13.40;57.30;;;;;;5011739;28;20045;-48
2023/04/12 02:43:11;;;;;;;1.35;0.63;;;13.40;57.60;;;;;;5011977;28;20041;-49
2023/04/12 02:45:44;;;;;;;1.83;0.70;;;13.40;57.30;;;;;;5028652;28;20041;-50
2023/04/12 02:48:10;;;;;;;2.30;0.52;;;13.40;57.40;;;;;;5026145;28;20049;-48
2023/04/12 02:50:37;;;;;;;3.40;1.02;;;13.40;57.50;;;;;;5007151;28;20033;-45
2023/04/12 02:53:17;;;;;;;1.15;0.60;;;13.40;57.40;;;;;;5030882;28;20069;-47
2023/04/12 02:55:56;;;;;;;1.55;0.77;;;13.60;57.40;;;;;;5005328;28;20605;-51
2023/04/12 02:58:26;;;;;;;3.17;0.80;;;13.40;57.30;;;;;;5009788;28;20080;-48
2023/04/12 03:00:58;;;;;;;0.63;0.40;;;13.40;57.40;;;;;;5022319;28;20095;-47
2023/04/12 03:03:30;;;;;;;1.90;0.50;;;13.40;57.50;;;;;;5006614;28;20417;-50
2023/04/12 03:06:04;;;;;;;0.90;0.80;;;13.40;57.60;;;;;;5011286;28;20033;-49
2023/04/12 03:08:31;;;;;;;0.73;0.50;;;13.40;57.70;;;;;;5026980;28;20038;-50
2023/04/12 03:10:58;;;;;;;1.17;0.95;;;13.40;57.80;;;;;;5028552;28;20030;-49
2023/04/12 03:13:26;;;;;;;1.30;0.60;;;13.30;57.90;;;;;;5026208;28;20068;-44
2023/04/12 03:15:56;;;;;;;0.77;0.60;;;13.40;58.10;;;;;;5024179;28;20045;-48
2023/04/12 03:18:30;;;;;;;1.90;0.75;;;13.40;58.10;;;;;;5029223;28;20042;-50
2023/04/12 03:20:59;;;;;;;2.67;1.00;;;13.40;58.00;;;;;;5014043;28;20065;-51
2023/04/12 03:23:29;;;;;;;1.33;0.55;;;13.40;58.10;;;;;;5007791;28;20083;-49
2023/04/12 03:26:08;;;;;;;1.73;0.88;;;13.40;58.30;;;;;;5026515;28;20499;-50
2023/04/12 03:28:35;;;;;;;1.25;0.40;;;13.40;58.00;;;;;;5023459;28;20072;-48
2023/04/12 03:31:06;;;;;;;1.45;0.68;;;13.40;58.30;;;;;;5017366;28;20041;-51
2023/04/12 03:33:39;;;;;;;1.70;0.68;;;13.40;58.30;;;;;;5013549;28;20457;-46
2023/04/12 03:36:15;;;;;;;2.67;0.60;;;13.40;58.20;;;;;;5016300;28;20045;-50
2023/04/12 03:38:48;;;;;;;2.17;0.98;;;13.40;58.20;;;;;;5007386;28;20046;-50
2023/04/12 03:41:16;;;;;;;2.38;0.75;;;13.40;58.30;;;;;;5018723;28;20709;-49
2023/04/12 03:43:43;;;;;;;0.95;0.50;;;13.30;58.40;;;;;;5016205;28;20038;-49
2023/04/12 03:46:18;;;;;;;0.90;0.52;;;13.40;58.50;;;;;;5028937;28;20408;-50
2023/04/12 03:48:53;;;;;;;2.33;0.57;;;13.30;58.50;;;;;;5018112;28;20691;-49
2023/04/12 03:51:25;;;;;;;1.30;0.60;;;13.30;58.50;;;;;;5026328;28;20047;-44
2023/04/12 03:54:01;;;;;;;1.95;0.85;;;13.30;58.70;;;;;;5037518;28;20045;-51
2023/04/12 03:56:32;;;;;;;3.33;1.05;;;13.30;59.10;;;;;;5014295;28;20046;-47
2023/04/12 03:59:06;;;;;;;2.00;0.52;;;13.30;58.90;;;;;;5030163;28;20045;-47
2023/04/12 04:01:34;;;;;;;1.25;0.52;;;13.30;59.10;;;;;;5029448;28;20524;-50
2023/04/12 04:04:02;;;;;;;0.95;0.60;;;13.30;59.30;;;;;;5025216;28;20049;-49
2023/04/12 04:06:30;;;;;;;1.70;0.63;;;13.30;59.30;;;;;;5028715;28;20100;-47
2023/04/12 04:08:57;;;;;;;0.82;0.40;;;13.20;59.30;;;;;;5030319;28;20048;-49
2023/04/12 04:11:26;;;;;;;1.10;0.55;;;13.30;59.40;;;;;;5031003;28;20044;-50
2023/04/12 04:14:02;;;;;;;2.25;0.60;;;13.30;59.40;;;;;;5015522;28;20056;-46
2023/04/12 04:16:30;;;;;;;1.23;0.63;;;13.20;59.40;;;;;;5011596;28;20061;-51
2023/04/12 04:18:58;;;;;;;0.95;0.50;;;13.20;59.60;;;;;;5009470;28;20050;-49
2023/04/12 04:21:25;;;;;;;2.60;0.88;;;13.20;59.80;;;;;;5011834;28;20528;-48
2023/04/12 04:24:01;;;;;;;1.15;0.73;;;13.20;59.90;;;;;;5014019;28;20060;-45
2023/04/12 04:26:37;;;;;;;2.17;0.70;;;13.20;60.10;;;;;;5013788;28;20037;-48
2023/04/12 04:29:10;;;;;;;0.50;0.50;;;13.20;59.90;;;;;;5028047;28;20052;-48
2023/04/12 04:31:38;;;;;;;1.40;0.50;;;13.10;60.20;;;;;;5024818;28;20033;-47
2023/04/12 04:34:07;;;;;;;0.70;0.60;;;13.20;60.50;;;;;;5006179;28;20449;-47
2023/04/12 04:36:40;;;;;;;1.38;0.82;;;13.10;60.90;;;;;;5030156;28;20472;-48
2023/04/12 04:39:08;;;;;;;4.15;0.70;;;13.10;60.80;;;;;;5031103;28;20044;-48
2023/04/12 04:41:40;;;;;;;0.75;0.60;;;13.10;60.80;;;;;;5013966;28;20046;-47
2023/04/12 04:44:17;;;;;;;1.45;0.85;;;13.00;60.80;;;;;;5011144;28;20037;-48
2023/04/12 04:46:51;;;;;;;2.38;0.90;;;13.00;60.90;;;;;;5018406;28;20096;-51
2023/04/12 04:49:18;;;;;;;1.95;0.68;;;13.00;60.90;;;;;;5026579;28;20125;-46
2023/04/12 04:51:45;;;;;;;1.48;0.73;;;13.00;61.20;;;;;;5013782;28;20619;-48
2023/04/12 04:54:12;;;;;;;1.17;0.60;;;13.00;61.50;;;;;;5031247;28;20398;-47
2023/04/12 04:56:41;;;;;;;1.27;0.68;;;12.90;61.60;;;;;;5029669;28;20104;-45
2023/04/12 04:59:10;;;;;;;0.88;0.82;;;12.90;61.70;;;;;;5032767;28;20052;-48
2023/04/12 05:01:37;;;;;;;1.50;1.00;;;12.90;62.00;;;;;;5014474;28;20887;-47
2023/04/12 05:04:03;;;;;;;0.75;0.63;;;12.90;62.00;;;;;;5023541;28;20038;-51
2023/04/12 05:06:31;;;;;;;2.53;0.75;;;12.90;62.00;;;;;;5032392;28;20048;-51
2023/04/12 05:09:00;;;;;;;1.52;0.93;;;12.90;62.30;;;;;;5012626;28;20410;-51
2023/04/12 05:11:28;;;;;;;3.45;0.68;;;12.80;62.20;;;;;;5014043;28;20040;-50
2023/04/12 05:13:56;;;;;;;3.20;1.30;;;12.80;62.40;;;;;;5012020;28;20060;-49
2023/04/12 05:16:25;;;;;;;2.17;0.88;;;12.80;62.50;;;;;;5013928;28;20697;-48
2023/04/12 05:18:52;;;;;;;1.13;0.60;;;12.80;62.70;;;;;;5024837;28;20120;-48
2023/04/12 05:21:18;;;;;;;0.75;0.75;;;12.80;62.80;;;;;;5010826;28;20045;-50
2023/04/12 05:23:46;;;;;;;1.77;0.82;;;12.80;62.90;;;;;;5029163;28;20124;-49
2023/04/12 05:26:13;;;;;;;1.10;0.70;;;12.80;63.20;;;;;;5028869;28;20037;-48
2023/04/12 05:28:44;;;;;;;1.48;0.50;;;12.80;63.30;;;;;;5016237;28;20540;-51
2023/04/12 05:31:11;;;;;;;0.88;0.70;;;12.80;63.30;;;;;;5009676;28;20072;-50
2023/04/12 05:33:40;;;;;;;1.05;0.60;;;12.80;63.20;;;;;;5008555;28;20863;-50
2023/04/12 05:36:07;;;;;;;1.42;0.70;;;12.80;63.30;;;;;;5016314;28;20414;-47
2023/04/12 05:38:34;;;;;;;0.45;0.40;;;12.80;63.50;;;;;;5042462;28;20041;-45
2023/04/12 05:41:05;;;;;;;1.05;0.50;;;12.80;63.50;;;;;;5013091;28;20046;-51
2023/04/12 05:43:33;;;;;;;0.77;0.60;;;12.90;63.50;;;;;;5006653;28;20053;-48
2023/04/12 05:46:00;;;;;;;1.10;0.70;;;12.90;63.60;;;;;;5026261;28;20395;-51
2023/04/12 05:48:27;;;;;;;0.85;0.50;;;12.80;63.50;;;;;;5024657;28;20096;-47
2023/04/12 05:50:56;;;;;;;1.27;0.60;;;12.80;63.50;;;;;;5010805;28;20037;-51
2023/04/12 05:53:23;;;;;;;2.13;0.60;;;12.80;63.60;;;;;;5028503;28;20501;-49
2023/04/12 05:55:50;;;;;;;1.17;0.40;;;12.80;63.80;;;;;;5032285;28;20071;-48
2023/04/12 05:58:17;;;;;;;1.27;0.93;;;12.80;63.80;;;;;;5013778;28;20583;-47
2023/04/12 06:00:45;;;;;;;1.42;0.52;;;12.80;63.90;;;;;;5011163;28;20889;-50
2023/04/12 06:03:12;;;;;;;1.17;0.73;;;12.80;64.00;;;;;;5010652;28;20052;-48
2023/04/12 06:05:39;;;;;;;0.50;0.50;;;12.80;64.10;;;;;;5009562;28;20052;-47
2023/04/12 06:08:07;;;;;;;2.70;0.52;;;12.80;64.20;;;;;;5029315;28;20041;-47
2023/04/12 06:10:33;;;;;;;3.20;0.90;;;12.80;64.30;;;;;;5020461;28;20401;-50
2023/04/12 06:13:02;;;;;;;1.10;0.90;;;12.80;64.40;;;;;;5010963;28;20040;-51
2023/04/12 06:15:30;;;;;;;1.05;0.68;;;12.80;64.60;;;;;;5016392;28;20038;-51
2023/04/12 06:17:59;;;;;;;1.48;0.70;;;12.90;64.80;;;;;;5019287;28;20051;-51
2023/04/12 06:20:26;;;;;;;1.50;0.77;;;12.90;64.80;;;;;;5028122;28;20080;-50
2023/04/12 06:22:53;;;;;;;1.02;0.85;;;12.90;64.80;;;;;;5011226;28;20042;-50
2023/04/12 06:25:23;;;;;;;1.25;0.60;;;12.90;64.70;;;;;;5020764;28;20107;-49
2023/04/12 06:27:52;;;;;;;1.60;0.93;;;13.00;65.10;;;;;;5010124;28;20395;-47
2023/04/12 06:30:20;;;;;;;0.60;0.60;;;13.00;64.80;;;;;;5008291;28;20041;-47
2023/04/12 06:32:50;;;;;;;1.67;1.15;;;13.00;64.80;;;;;;5009566;28;20048;-49
2023/04/12 06:35:19;;;;;;;2.58;0.90;;;13.00;65.00;;;;;;5015611;28;20069;-49
2023/04/12 06:37:45;;;;;;;2.42;0.75;;;13.00;65.10;;;;;;5020828;28;20759;-51
2023/04/12 06:40:12;;;;;;;1.27;0.80;;;13.00;65.10;;;;;;5044709;28;20050;-46
2023/04/12 06:42:39;;;;;;;0.85;0.80;;;13.10;65.10;;;;;;5037678;28;20128;-48
2023/04/12 06:45:06;;;;;;;3.13;0.75;;;13.10;65.30;;;;;;5027885;28;20405;-50
2023/04/12 06:47:33;;;;;;;0.90;0.52;;;13.10;65.30;;;;;;5028451;28;20042;-49
2023/04/12 06:49:59;;;;;;;0.98;0.65;;;13.10;65.40;;;;;;5025811;28;20046;-49
2023/04/12 06:52:26;;;;;;;2.47;0.68;;;13.20;65.50;;;;;;5028311;28;20041;-50
2023/04/12 06:54:54;;;;;;;2.85;0.70;;;13.20;65.70;;;;;;5026409;28;20049;-46
2023/04/12 06:57:21;;;;;;;1.13;0.70;;;13.30;65.90;;;;;;5029387;28;20037;-48
2023/04/12 06:59:48;;;;;;;0.70;0.60;;;13.30;66.50;;;;;;5029358;28;20048;-48
2023/04/12 07:02:14;;;;;;;1.40;0.90;;;13.30;65.90;;;;;;5032495;28;20045;-47
2023/04/12 07:04:44;;;;;;;1.52;0.50;;;13.30;65.70;;;;;;5035138;28;20041;-48
2023/04/12 07:07:10;;;;;;;0.60;0.60;;;13.40;66.50;;;;;;5035083;28;20045;-47
2023/04/12 07:09:37;;;;;;;1.00;0.65;;;13.40;65.60;;;;;;5035708;28;20044;-48
2023/04/12 07:12:04;;;;;;;0.60;0.52;;;13.40;65.60;;;;;;5035044;28;20124;-46
2023/04/12 07:14:30;;;;;;;1.27;0.60;;;13.50;65.60;;;;;;5017235;28;20045;-49
2023/04/12 07:16:57;;;;;;;1.45;0.80;;;13.50;65.70;;;;;;5035501;28;20057;-47
2023/04/12 07:19:24;;;;;;;1.95;0.90;;;13.50;65.70;;;;;;5036142;28;20041;-47
2023/04/12 07:21:50;;;;;;;0.90;0.73;;;13.60;65.70;;;;;;5033919;28;20132;-47
2023/04/12 07:24:17;;;;;;;0.93;0.80;;;13.60;65.60;;;;;;5035755;28;20045;-47
2023/04/12 07:26:44;;;;;;;0.63;0.43;;;13.60;65.50;;;;;;5030589;28;20430;-51
2023/04/12 07:29:10;;;;;;;0.68;0.43;;;13.60;65.50;;;;;;5036236;28;20033;-51
2023/04/12 07:31:37;;;;;;;0.60;0.57;;;13.70;65.60;;;;;;5034584;28;20059;-48
2023/04/12 07:34:03;;;;;;;0.98;0.60;;;13.70;65.60;;;;;;5017589;28;20052;-46
2023/04/12 07:36:30;;;;;;;0.88;0.63;;;13.70;65.70;;;;;;5035292;28;20063;-45
2023/04/12 07:38:57;;;;;;;0.60;0.60;;;13.70;65.70;;;;;;5035461;28;20045;-46
2023/04/12 07:41:24;;;;;;;2.00;0.63;;;13.70;65.60;;;;;;5034718;28;20045;-48
2023/04/12 07:43:50;;;;;;;1.15;0.70;;;13.70;65.60;;;;;;5033659;28;20565;-45
2023/04/12 07:46:17;;;;;;;0.73;0.70;;;13.80;65.40;;;;;;5034987;28;20037;-49
2023/04/12 07:48:44;;;;;;;0.68;0.50;;;13.80;65.50;;;;;;5035365;28;20048;-49
2023/04/12 07:51:11;;;;;;;1.42;0.60;;;13.70;65.50;;;;;;5033836;28;20409;-48
2023/04/12 07:53:40;;;;;;;1.50;0.40;;;13.70;65.60;;;;;;5034222;28;20485;-49
2023/04/12 07:56:07;;;;;;;0.70;0.70;;;13.80;65.80;;;;;;5027115;28;20103;-50
2023/04/12 07:58:34;;;;;;;0.57;0.52;;;13.70;65.90;;;;;;5031072;28;20490;-49
2023/04/12 08:01:01;;;;;;;0.75;0.50;;;13.80;66.10;;;;;;5028446;28;20038;-48
2023/04/12 08:03:28;;;;;;;0.50;0.43;;;13.80;66.30;;;;;;5027408;28;20029;-48
2023/04/12 08:05:57;;;;;;;0.68;0.50;;;13.80;66.40;;;;;;5033590;28;20413;-46
2023/04/12 08:08:24;;;;;;;1.08;0.40;;;13.90;66.50;;;;;;5035272;28;20041;-49
2023/04/12 08:10:51;;;;;;;0.52;0.47;;;13.90;66.50;;;;;;5035220;28;20048;-47
2023/04/12 08:13:19;;;;;;;0.50;0.50;;;13.90;66.40;;;;;;5033160;28;20042;-49
2023/04/12 08:15:46;;;;;;;1.10;0.80;;;14.00;66.50;;;;;;5031545;28;20515;-47
2023/04/12 08:18:13;;;;;;;0.73;0.47;;;14.00;66.40;;;;;;5018900;28;20045;-48
2023/04/12 08:20:40;;;;;;;0.40;0.40;;;14.10;66.60;;;;;;5034909;28;20409;-47
2023/04/12 08:23:06;;;;;;;0.80;0.70;;;14.10;66.50;;;;;;5038958;28;20037;-46
2023/04/12 08:25:33;;;;;;;1.50;0.80;;;14.10;67.00;;;;;;5050155;28;20036;-49
2023/04/12 08:28:00;;;;;;;1.90;0.60;;;14.10;66.40;;;;;;5051008;28;20044;-53
2023/04/12 08:30:27;;;;;;;0.50;0.50;;;14.10;66.40;;;;;;5042026;28;20040;-48
2023/04/12 08:32:53;;;;;;;0.82;0.68;;;14.10;66.40;;;;;;5038485;28;20041;-50
2023/04/12 08:35:21;;;;;;;0.80;0.80;;;14.10;66.40;;;;;;5028507;28;20091;-51
2023/04/12 08:37:48;;;;;;;0.60;0.50;;;14.20;66.40;;;;;;5030514;28;20405;-52
2023/04/12 08:40:15;;;;;;;0.95;0.52;;;14.10;66.50;;;;;;5033016;28;20516;-48
2023/04/12 08:42:42;;;;;;;0.32;0.32;;;14.10;66.50;;;;;;5030244;28;20056;-51
2023/04/12 08:45:10;;;;;;;1.05;0.30;;;14.20;66.70;;;;;;5032145;28;20095;-51
2023/04/12 08:47:43;;;;;;;0.50;0.50;;;14.20;67.00;;;;;;5030470;28;20125;-52
2023/04/12 08:50:14;;;;;;;0.88;0.55;;;14.20;66.70;;;;;;5031196;28;20121;-49
2023/04/12 08:52:42;;;;;;;2.33;0.38;;;14.10;66.70;;;;;;5026314;28;20041;-49
2023/04/12 08:55:10;;;;;;;0.90;0.20;;;14.20;66.60;;;;;;5019152;28;20426;-49
2023/04/12 08:57:40;;;;;;;0.45;0.40;;;14.10;66.40;;;;;;5034298;28;20053;-50
2023/04/12 09:00:08;;;;;;;0.50;0.40;;;14.20;66.70;;;;;;5032235;28;20051;-49
2023/04/12 09:02:37;;;;;;;0.40;0.40;;;14.10;66.70;;;;;;5029234;28;20072;-50
2023/04/12 09:05:05;;;;;;;1.83;1.63;;;14.10;67.20;;;;;;5030971;28;20037;-52
2023/04/12 09:07:32;;;;;;;3.80;3.40;;;14.20;67.20;;;;;;5028239;28;20029;-48
2023/04/12 09:09:59;;;;;;;5.03;4.10;;;14.20;67.20;;;;;;5031858;28;20049;-49
2023/04/12 09:12:26;;;;;;;3.47;2.95;;;14.30;67.30;;;;;;5030415;28;20072;-49
2023/04/12 09:15:14;;;;;;;3.92;2.63;;;14.30;67.00;;;;;;5031788;28;20472;-50
2023/04/12 09:17:44;;;;;;;2.47;2.20;;;14.40;68.00;;;;;;5030227;28;20498;-51
2023/04/12 09:20:16;;;;;;;2.70;1.83;;;14.50;66.50;;;;;;5029778;28;20095;-50
2023/04/12 09:22:45;;;;;;;2.83;2.20;;;14.50;66.70;;;;;;5030627;28;20514;-47
2023/04/12 09:25:13;;;;;;;1.90;1.80;;;14.60;66.40;;;;;;5029893;28;20063;-50
2023/04/12 09:27:46;;;;;;;2.40;1.65;;;14.70;66.60;;;;;;5024156;28;20406;-49
2023/04/12 09:30:15;;;;;;;3.88;2.47;;;14.80;66.20;;;;;;5031044;28;20120;-50
2023/04/12 09:32:42;;;;;;;2.40;2.20;;;14.90;66.10;;;;;;5029764;28;20852;-47
2023/04/12 09:35:10;;;;;;;3.15;1.92;;;15.00;65.80;;;;;;5030613;28;20088;-47
2023/04/12 09:37:36;;;;;;;2.53;2.17;;;15.10;65.60;;;;;;5030449;28;20510;-48
2023/04/12 09:40:05;;;;;;;2.85;1.90;;;15.20;65.30;;;;;;5030292;28;20052;-48
2023/04/12 09:42:33;;;;;;;3.85;2.28;;;15.20;64.70;;;;;;5029206;28;20069;-47
2023/04/12 09:45:21;;;;;;;2.50;2.28;;;15.30;64.40;;;;;;5030078;28;20148;-49
2023/04/12 09:47:48;;;;;;;4.10;2.78;;;15.30;64.50;;;;;;5030203;28;20417;-46
2023/04/12 09:50:23;;;;;;;5.65;3.08;;;15.20;63.20;;;;;;5029671;28;20087;-51
2023/04/12 09:52:51;;;;;;;3.58;3.28;;;15.10;63.60;;;;;;5029204;28;20061;-51
2023/04/12 09:55:22;;;;;;;4.28;3.28;;;15.10;63.20;;;;;;5030922;28;20042;-46
2023/04/12 09:57:50;;;;;;;4.80;2.97;;;15.00;63.30;;;;;;5029849;28;20045;-47
2023/04/12 10:00:21;;;;;;;6.22;3.30;;;15.00;63.80;;;;;;5029697;28;20042;-48
2023/04/12 10:02:50;;;;;;;6.13;3.22;;;14.90;63.80;;;;;;5028436;28;20102;-47
2023/04/12 10:05:20;;;;;;;6.28;3.58;;;15.00;63.80;;;;;;5030972;28;20037;-49
2023/04/12 10:07:48;;;;;;;4.35;3.05;;;15.00;63.80;;;;;;5030336;28;20060;-46
2023/04/12 10:10:17;;;;;;;4.90;3.25;;;15.00;63.70;;;;;;5030810;28;20037;-50
2023/04/12 10:12:46;;;;;;;3.97;2.75;;;15.10;62.90;;;;;;5028904;28;20046;-48
2023/04/12 10:15:15;;;;;;;6.40;2.85;;;15.10;63.10;;;;;;5026815;28;20048;-46
2023/04/12 10:17:48;;;;;;;4.25;3.03;;;15.20;63.10;;;;;;5029935;28;20057;-51
2023/04/12 10:20:20;;;;;;;4.10;2.78;;;15.30;62.80;;;;;;5028629;28;20689;-49
2023/04/12 10:22:49;;;;;;;4.18;2.53;;;15.30;62.90;;;;;;5027956;28;20057;-47
2023/04/12 10:25:18;;;;;;;3.20;2.78;;;15.40;62.30;;;;;;5029820;28;20092;-47
2023/04/12 10:27:46;;;;;;;5.68;2.85;;;15.50;62.20;;;;;;5028214;28;20084;-48
2023/04/12 10:30:24;;;;;;;3.10;2.60;;;15.60;62.10;;;;;;5036455;28;20037;-49
2023/04/12 10:33:03;;;;;;;3.72;2.47;;;15.70;61.40;;;;;;5025225;28;20056;-51
2023/04/12 10:35:59;;;;;;;3.72;2.47;;;15.80;61.90;;;;;;5033065;28;20099;-47
2023/04/12 10:38:31;;;;;;;3.70;2.28;;;16.00;61.30;;;;;;5048474;28;20505;-47
2023/04/12 10:41:16;;;;;;;4.20;2.42;;;16.10;61.00;;;;;;5030282;28;20049;-47
2023/04/12 10:43:48;;;;;;;5.00;2.33;;;16.40;60.20;;;;;;5027342;28;20108;-48
2023/04/12 10:46:44;;;;;;;5.35;2.95;;;16.40;60.10;;;;;;5021959;28;20041;-46
2023/04/12 10:49:12;;;;;;;3.50;2.10;;;16.50;59.80;;;;;;5018374;28;20513;-46
2023/04/12 10:52:02;;;;;;;8.55;3.63;;;16.60;59.80;;;;;;5028638;28;20041;-48
2023/04/12 10:54:31;;;;;;;3.15;2.80;;;16.70;59.00;;;;;;5023344;28;20652;-48
2023/04/12 10:56:58;;;;;;;4.60;2.58;;;16.80;58.40;;;;;;5029933;28;20048;-51
2023/04/12 10:59:50;;;;;;;5.75;2.80;;;16.80;58.80;;;;;;5010890;28;20065;-51
2023/04/12 11:02:17;;;;;;;7.28;3.13;;;16.90;57.70;;;;;;5021858;28;20108;-52
2023/04/12 11:05:09;;;;;;;5.80;2.53;;;17.00;57.90;;;;;;5028380;28;20048;-50
2023/04/12 11:07:55;;;;;;;6.50;3.88;;;17.00;56.80;;;;;;5028402;28;20065;-49
2023/04/12 11:10:45;;;;;;;7.13;3.58;;;17.00;56.90;;;;;;5028656;28;20126;-50
2023/04/12 11:13:19;;;;;;;6.40;3.13;;;17.00;56.20;;;;;;5020540;28;20128;-48
2023/04/12 11:15:46;;;;;;;6.63;4.50;;;16.90;55.80;;;;;;5021634;28;20046;-52
2023/04/12 11:18:13;;;;;;;6.90;4.65;;;16.90;55.90;;;;;;5020452;28;20048;-51
2023/04/12 11:20:39;;;;;;;10.23;4.65;;;16.90;55.60;;;;;;5027074;28;20046;-49
2023/04/12 11:23:06;;;;;;;9.20;4.72;;;16.90;56.10;;;;;;5027729;28;20045;-51
2023/04/12 11:25:37;;;;;;;7.40;3.55;;;16.80;56.30;;;;;;5030400;28;20041;-49
2023/04/12 11:28:04;;;;;;;6.80;3.63;;;16.80;56.70;;;;;;5027977;28;20046;-47
2023/04/12 11:30:54;;;;;;;6.03;3.33;;;16.90;56.20;;;;;;5025635;28;20038;-50
2023/04/12 11:33:35;;;;;;;7.65;3.03;;;16.80;56.00;;;;;;5027105;28;20033;-49
2023/04/12 11:36:11;;;;;;;7.10;2.85;;;16.90;55.10;;;;;;5029858;28;20042;-49
2023/04/12 11:38:38;;;;;;;7.20;3.78;;;16.80;55.30;;;;;;5029427;28;20046;-48
2023/04/12 11:41:07;;;;;;;7.05;3.50;;;16.80;54.90;;;;;;5028055;28;20060;-54
2023/04/12 11:43:35;;;;;;;7.13;2.80;;;16.80;55.10;;;;;;5028865;28;20045;-49
2023/04/12 11:46:05;;;;;;;5.07;2.28;;;16.70;55.30;;;;;;5028954;28;20095;-52
2023/04/12 11:48:32;;;;;;;3.72;2.85;;;16.70;55.10;;;;;;5028215;28;20038;-51
2023/04/12 11:50:58;;;;;;;7.38;3.10;;;16.70;55.50;;;;;;5031980;28;20045;-49
2023/04/12 11:53:37;;;;;;;7.93;2.88;;;16.60;55.90;;;;;;5032666;28;20041;-50
2023/04/12 11:56:04;;;;;;;6.07;3.00;;;16.70;56.50;;;;;;5031942;28;20421;-49
2023/04/12 11:58:32;;;;;;;6.88;2.95;;;16.70;56.10;;;;;;5031812;28;20038;-48
2023/04/12 12:00:59;;;;;;;6.78;2.10;;;16.70;56.10;;;;;;5028798;28;20052;-50
2023/04/12 12:03:26;;;;;;;9.80;2.65;;;16.80;55.80;;;;;;5028724;28;20076;-48
2023/04/12 12:05:53;;;;;;;6.97;2.20;;;16.90;55.70;;;;;;5032558;28;20096;-50
2023/04/12 12:08:23;;;;;;;6.03;2.25;;;16.90;55.70;;;;;;5031560;28;20041;-51
2023/04/12 12:10:50;;;;;;;6.65;2.60;;;17.00;55.40;;;;;;5032493;28;20051;-47
2023/04/12 12:13:53;;;;;;;6.70;2.80;;;17.00;54.00;;;;;;5031796;28;20041;-49
2023/04/12 12:16:25;;;;;;;6.40;1.77;;;17.10;53.40;;;;;;5031574;28;20457;-50
2023/04/12 12:18:52;;;;;;;6.82;1.83;;;17.10;53.30;;;;;;5031168;28;20073;-53
2023/04/12 12:21:18;;;;;;;3.25;1.55;;;17.00;53.30;;;;;;5031302;28;20092;-48
2023/04/12 12:23:46;;;;;;;6.43;1.58;;;16.90;53.20;;;;;;5032273;28;20050;-46
2023/04/12 12:26:29;;;;;;;8.23;2.13;;;16.90;52.90;;;;;;5031934;28;20034;-51
2023/04/12 12:28:59;;;;;;;4.70;1.73;;;16.80;53.30;;;;;;5031763;28;20045;-52
2023/04/12 12:31:27;;;;;;;6.05;1.88;;;16.80;53.10;;;;;;5017651;28;20558;-50
2023/04/12 12:33:59;;;;;;;6.57;1.90;;;16.70;53.90;;;;;;5031097;28;20052;-47
2023/04/12 12:36:31;;;;;;;5.32;1.40;;;16.60;54.70;;;;;;5048358;28;20045;-49
2023/04/12 12:39:09;;;;;;;7.00;1.73;;;16.50;54.60;;;;;;5031467;28;20068;-47
2023/04/12 12:41:37;;;;;;;3.60;1.45;;;16.40;55.40;;;;;;5025089;28;20046;-51
2023/04/12 12:44:07;;;;;;;5.43;1.60;;;16.20;55.50;;;;;;5029875;28;20038;-50
2023/04/12 12:46:34;;;;;;;7.28;2.17;;;16.10;55.80;;;;;;5027663;28;20073;-46
2023/04/12 12:49:04;;;;;;;6.13;2.08;;;16.00;56.80;;;;;;5028546;28;20034;-48
2023/04/12 12:51:30;;;;;;;7.28;2.17;;;16.00;57.20;;;;;;5024863;28;20041;-46
2023/04/12 12:53:57;;;;;;;4.63;2.00;;;16.00;58.10;;;;;;5028801;28;20502;-47
2023/04/12 12:56:24;;;;;;;6.90;1.65;;;16.10;58.50;;;;;;5029542;28;20045;-51
2023/04/12 12:58:51;;;;;;;3.75;1.40;;;16.20;58.70;;;;;;5032400;28;20053;-45
2023/04/12 13:01:17;;;;;;;4.28;2.35;;;16.30;58.70;;;;;;5035321;28;20053;-48
2023/04/12 13:03:44;;;;;;;4.20;1.85;;;16.40;58.70;;;;;;5025916;28;20493;-50